Terminal Aerodrome Forecast
Issued by NWS

Home | Current Version | Previous Version | Text Only | Print | Product List | Glossary On
Versions: 1 2 3 4 5 6 7 8 9 10 11 12 13 14 15 16 17
000
FTUS44 KLZK 260500
TAFADF
TAF
KADF 260537Z 2606/2706 00000KT 1/4SM FG VV002
      TEMPO 2612/2615 2SM BR SCT005
     FM261500 21007KT P6SM SKC
     FM270000 VRB02KT P6SM SKC=

USA.gov is the U.S. government's official web portal to all federal, state and local government web resources and services.